Decoded Metar for SAZS (SAN CARLOS DE BARILOCH in ARGENTINA) (IATA:BRC) | Meteo·Mobile Aviation Weather
aviador You're here:

SAZS Decoded Metar

SAN CARLOS DE BARILOCH in ARGENTINA
Report Time2018-11-12 21:00:00
UTC Time2018-11-12 22:02:18
Flight Rules vfr VFR
Wind290° at 16 kt
W.Decomp.*RWY 29: 15.8 kt HW 2.2 kt LCW
W.Rank290° ranks 2
Current wind is above 290° avg. (14.9)
Visibility9999 m
Phenomena:N/A
Clouds:Scattered 035 Hf
Expected CloudBase > 6,000 ft AGL from Temp-Dew spread
CeilingNone
Temp18°C (ISA +8)
Dew Point03°C (37% RH)
AAT10.8°C
QNH1015 hPa
Density Alt3,786 ft
Elevation2,756 ft
Report Wrong Elevation
Raw Report
SAZS 122100Z 29016KT 9999 SCT035 18/03 Q1015=

Extra information for SAZS:More info

Metar Taf Metar & Taf Last 4 Metars F.Rules Stats Wind Profile Meteogram Temp Stats Airport Information Weather charts Add Link Nearby VenuesMetar ALERT Operation Metar Decoded Social comments